Terminal Aerodrome Forecast
Issued by NWS Sioux Falls, SD

Home | Current Version | Previous Version | Text Only | Print | Product List | Glossary Off
Versions: 1 2 3 4 5 6 7 8 9 10 11 12 13 14 15

000
FTUS43 KFSD 191100
TAFFSD
TAF
KFSD 191131Z 1912/2012 18014G22KT P6SM FEW100 BKN150
     FM191600 22010KT P6SM FEW050 BKN150
     FM192000 26005KT P6SM FEW050 OVC110
     FM192300 31005KT P6SM SCT060 OVC100
     FM200300 VRB03KT P6SM BKN080=

USA.gov is the U.S. government's official web portal to all federal, state and local government web resources and services.